sensor_id;sensor_type;location;lat;lon;timestamp;P1;durP1;ratioP1;P2;durP2;ratioP2
4182;SDS011;2105;52.300;9.182;2022-10-16T00:01:06;12.10;;;11.40;;
4182;SDS011;2105;52.300;9.182;2022-10-16T00:03:34;12.80;;;11.70;;
4182;SDS011;2105;52.300;9.182;2022-10-16T00:06:02;12.10;;;11.30;;
4182;SDS011;2105;52.300;9.182;2022-10-16T00:08:29;12.43;;;11.43;;
4182;SDS011;2105;52.300;9.182;2022-10-16T00:11:00;12.40;;;11.50;;
4182;SDS011;2105;52.300;9.182;2022-10-16T00:13:27;12.17;;;11.20;;
4182;SDS011;2105;52.300;9.182;2022-10-16T00:15:55;12.30;;;11.40;;
4182;SDS011;2105;52.300;9.182;2022-10-16T00:18:22;12.10;;;11.30;;
4182;SDS011;2105;52.300;9.182;2022-10-16T00:20:50;11.77;;;10.90;;
4182;SDS011;2105;52.300;9.182;2022-10-16T00:23:18;11.70;;;10.90;;
4182;SDS011;2105;52.300;9.182;2022-10-16T00:25:53;11.70;;;10.80;;
4182;SDS011;2105;52.300;9.182;2022-10-16T00:28:21;11.63;;;10.80;;
4182;SDS011;2105;52.300;9.182;2022-10-16T00:30:48;11.70;;;10.93;;
4182;SDS011;2105;52.300;9.182;2022-10-16T00:33:15;12.23;;;11.23;;
4182;SDS011;2105;52.300;9.182;2022-10-16T00:35:42;12.43;;;11.20;;
4182;SDS011;2105;52.300;9.182;2022-10-16T00:38:09;12.80;;;11.40;;
4182;SDS011;2105;52.300;9.182;2022-10-16T00:40:38;12.80;;;11.80;;
4182;SDS011;2105;52.300;9.182;2022-10-16T00:43:08;12.10;;;11.20;;
4182;SDS011;2105;52.300;9.182;2022-10-16T00:45:36;12.20;;;11.20;;
4182;SDS011;2105;52.300;9.182;2022-10-16T00:48:03;12.27;;;11.27;;
4182;SDS011;2105;52.300;9.182;2022-10-16T00:50:31;12.43;;;11.43;;
4182;SDS011;2105;52.300;9.182;2022-10-16T00:52:59;12.37;;;11.27;;
4182;SDS011;2105;52.300;9.182;2022-10-16T00:55:27;14.07;;;11.50;;
4182;SDS011;2105;52.300;9.182;2022-10-16T00:57:56;12.70;;;11.40;;
4182;SDS011;2105;52.300;9.182;2022-10-16T01:00:25;13.40;;;10.80;;
4182;SDS011;2105;52.300;9.182;2022-10-16T01:02:53;11.50;;;10.60;;
4182;SDS011;2105;52.300;9.182;2022-10-16T01:05:20;12.20;;;11.20;;
4182;SDS011;2105;52.300;9.182;2022-10-16T01:07:49;11.73;;;10.73;;
4182;SDS011;2105;52.300;9.182;2022-10-16T01:10:21;11.77;;;10.77;;
4182;SDS011;2105;52.300;9.182;2022-10-16T01:12:54;11.43;;;10.40;;
4182;SDS011;2105;52.300;9.182;2022-10-16T01:15:26;12.83;;;11.00;;
4182;SDS011;2105;52.300;9.182;2022-10-16T01:17:56;12.00;;;11.00;;
4182;SDS011;2105;52.300;9.182;2022-10-16T01:20:26;11.80;;;10.80;;
4182;SDS011;2105;52.300;9.182;2022-10-16T01:22:57;11.40;;;10.50;;
4182;SDS011;2105;52.300;9.182;2022-10-16T01:25:30;11.67;;;10.70;;
4182;SDS011;2105;52.300;9.182;2022-10-16T01:28:00;11.80;;;10.80;;
4182;SDS011;2105;52.300;9.182;2022-10-16T01:30:29;11.50;;;10.70;;
4182;SDS011;2105;52.300;9.182;2022-10-16T01:32:59;14.07;;;11.77;;
4182;SDS011;2105;52.300;9.182;2022-10-16T01:35:28;12.23;;;11.23;;
4182;SDS011;2105;52.300;9.182;2022-10-16T01:37:58;12.10;;;10.90;;
4182;SDS011;2105;52.300;9.182;2022-10-16T01:40:27;13.17;;;11.93;;
4182;SDS011;2105;52.300;9.182;2022-10-16T01:42:56;12.00;;;11.10;;
4182;SDS011;2105;52.300;9.182;2022-10-16T01:45:26;13.00;;;12.00;;
4182;SDS011;2105;52.300;9.182;2022-10-16T01:47:55;12.80;;;11.60;;
4182;SDS011;2105;52.300;9.182;2022-10-16T01:50:22;12.27;;;11.20;;
4182;SDS011;2105;52.300;9.182;2022-10-16T01:52:51;12.67;;;11.63;;
4182;SDS011;2105;52.300;9.182;2022-10-16T01:55:19;12.13;;;11.03;;
4182;SDS011;2105;52.300;9.182;2022-10-16T01:57:48;12.27;;;11.17;;
4182;SDS011;2105;52.300;9.182;2022-10-16T02:00:16;12.83;;;11.57;;
4182;SDS011;2105;52.300;9.182;2022-10-16T02:02:46;11.93;;;11.10;;
4182;SDS011;2105;52.300;9.182;2022-10-16T02:05:16;13.10;;;11.80;;
4182;SDS011;2105;52.300;9.182;2022-10-16T02:07:45;14.60;;;11.67;;
4182;SDS011;2105;52.300;9.182;2022-10-16T02:10:12;13.67;;;10.80;;
4182;SDS011;2105;52.300;9.182;2022-10-16T02:12:40;11.30;;;10.40;;
4182;SDS011;2105;52.300;9.182;2022-10-16T02:15:08;11.43;;;10.40;;
4182;SDS011;2105;52.300;9.182;2022-10-16T02:17:35;11.67;;;10.60;;
4182;SDS011;2105;52.300;9.182;2022-10-16T02:20:04;11.93;;;10.37;;
4182;SDS011;2105;52.300;9.182;2022-10-16T02:22:32;12.13;;;10.53;;
4182;SDS011;2105;52.300;9.182;2022-10-16T02:25:01;11.13;;;10.13;;
4182;SDS011;2105;52.300;9.182;2022-10-16T02:27:31;12.80;;;10.37;;
4182;SDS011;2105;52.300;9.182;2022-10-16T02:30:02;11.87;;;10.20;;
4182;SDS011;2105;52.300;9.182;2022-10-16T02:32:33;10.63;;;9.53;;
4182;SDS011;2105;52.300;9.182;2022-10-16T02:35:00;10.77;;;9.87;;
4182;SDS011;2105;52.300;9.182;2022-10-16T02:37:29;10.40;;;9.23;;
4182;SDS011;2105;52.300;9.182;2022-10-16T02:39:57;10.70;;;9.57;;
4182;SDS011;2105;52.300;9.182;2022-10-16T02:42:27;11.00;;;9.40;;
4182;SDS011;2105;52.300;9.182;2022-10-16T02:44:54;10.03;;;9.13;;
4182;SDS011;2105;52.300;9.182;2022-10-16T02:47:21;11.90;;;10.63;;
4182;SDS011;2105;52.300;9.182;2022-10-16T02:49:48;10.33;;;9.47;;
4182;SDS011;2105;52.300;9.182;2022-10-16T02:52:15;10.57;;;9.60;;
4182;SDS011;2105;52.300;9.182;2022-10-16T02:54:44;11.73;;;9.90;;
4182;SDS011;2105;52.300;9.182;2022-10-16T02:57:11;10.57;;;9.57;;
4182;SDS011;2105;52.300;9.182;2022-10-16T02:59:38;11.47;;;10.23;;
4182;SDS011;2105;52.300;9.182;2022-10-16T03:02:05;10.90;;;10.10;;
4182;SDS011;2105;52.300;9.182;2022-10-16T03:04:32;11.30;;;10.40;;
4182;SDS011;2105;52.300;9.182;2022-10-16T03:06:59;12.87;;;10.77;;
4182;SDS011;2105;52.300;9.182;2022-10-16T03:09:26;11.23;;;10.30;;
4182;SDS011;2105;52.300;9.182;2022-10-16T03:11:54;10.97;;;9.93;;
4182;SDS011;2105;52.300;9.182;2022-10-16T03:14:21;15.13;;;9.87;;
4182;SDS011;2105;52.300;9.182;2022-10-16T03:16:48;10.97;;;9.80;;
4182;SDS011;2105;52.300;9.182;2022-10-16T03:19:16;10.43;;;9.43;;
4182;SDS011;2105;52.300;9.182;2022-10-16T03:21:43;10.47;;;9.67;;
4182;SDS011;2105;52.300;9.182;2022-10-16T03:24:10;10.67;;;9.77;;
4182;SDS011;2105;52.300;9.182;2022-10-16T03:26:37;11.33;;;9.80;;
4182;SDS011;2105;52.300;9.182;2022-10-16T03:29:05;10.60;;;9.80;;
4182;SDS011;2105;52.300;9.182;2022-10-16T03:31:32;12.77;;;9.80;;
4182;SDS011;2105;52.300;9.182;2022-10-16T03:34:00;11.00;;;9.80;;
4182;SDS011;2105;52.300;9.182;2022-10-16T03:36:27;10.60;;;9.70;;
4182;SDS011;2105;52.300;9.182;2022-10-16T03:38:54;10.43;;;9.43;;
4182;SDS011;2105;52.300;9.182;2022-10-16T03:41:21;10.33;;;9.43;;
4182;SDS011;2105;52.300;9.182;2022-10-16T03:43:48;11.40;;;9.90;;
4182;SDS011;2105;52.300;9.182;2022-10-16T03:46:17;12.47;;;9.70;;
4182;SDS011;2105;52.300;9.182;2022-10-16T03:48:44;11.70;;;9.80;;
4182;SDS011;2105;52.300;9.182;2022-10-16T03:51:11;10.53;;;9.67;;
4182;SDS011;2105;52.300;9.182;2022-10-16T03:53:38;10.90;;;9.67;;
4182;SDS011;2105;52.300;9.182;2022-10-16T03:56:05;11.30;;;10.13;;
4182;SDS011;2105;52.300;9.182;2022-10-16T03:58:32;10.77;;;9.83;;
4182;SDS011;2105;52.300;9.182;2022-10-16T04:00:59;10.60;;;9.53;;
4182;SDS011;2105;52.300;9.182;2022-10-16T04:03:28;11.07;;;10.07;;
4182;SDS011;2105;52.300;9.182;2022-10-16T04:05:55;11.00;;;9.83;;
4182;SDS011;2105;52.300;9.182;2022-10-16T04:08:22;10.40;;;9.60;;
4182;SDS011;2105;52.300;9.182;2022-10-16T04:10:49;10.90;;;9.90;;
4182;SDS011;2105;52.300;9.182;2022-10-16T04:13:16;11.00;;;10.00;;
4182;SDS011;2105;52.300;9.182;2022-10-16T04:15:44;10.73;;;9.90;;
4182;SDS011;2105;52.300;9.182;2022-10-16T04:18:11;13.20;;;10.57;;
4182;SDS011;2105;52.300;9.182;2022-10-16T04:20:40;10.40;;;9.63;;
4182;SDS011;2105;52.300;9.182;2022-10-16T04:23:07;9.90;;;9.07;;
4182;SDS011;2105;52.300;9.182;2022-10-16T04:25:34;10.13;;;9.23;;
4182;SDS011;2105;52.300;9.182;2022-10-16T04:28:01;11.03;;;9.53;;
4182;SDS011;2105;52.300;9.182;2022-10-16T04:30:28;9.87;;;8.87;;
4182;SDS011;2105;52.300;9.182;2022-10-16T04:32:55;9.93;;;9.23;;
4182;SDS011;2105;52.300;9.182;2022-10-16T04:35:22;10.10;;;9.10;;
4182;SDS011;2105;52.300;9.182;2022-10-16T04:37:51;10.77;;;9.13;;
4182;SDS011;2105;52.300;9.182;2022-10-16T04:40:18;9.93;;;9.20;;
4182;SDS011;2105;52.300;9.182;2022-10-16T04:42:45;9.80;;;8.80;;
4182;SDS011;2105;52.300;9.182;2022-10-16T04:45:12;11.63;;;9.03;;
4182;SDS011;2105;52.300;9.182;2022-10-16T04:47:39;10.27;;;9.13;;
4182;SDS011;2105;52.300;9.182;2022-10-16T04:50:06;10.13;;;9.20;;
4182;SDS011;2105;52.300;9.182;2022-10-16T04:52:33;9.90;;;9.20;;
4182;SDS011;2105;52.300;9.182;2022-10-16T04:55:02;9.67;;;8.97;;
4182;SDS011;2105;52.300;9.182;2022-10-16T04:57:29;9.90;;;9.20;;
4182;SDS011;2105;52.300;9.182;2022-10-16T04:59:58;10.07;;;9.33;;
4182;SDS011;2105;52.300;9.182;2022-10-16T05:02:25;10.33;;;9.00;;
4182;SDS011;2105;52.300;9.182;2022-10-16T05:04:52;10.57;;;9.57;;
4182;SDS011;2105;52.300;9.182;2022-10-16T05:07:19;10.30;;;9.50;;
4182;SDS011;2105;52.300;9.182;2022-10-16T05:09:46;10.80;;;9.57;;
4182;SDS011;2105;52.300;9.182;2022-10-16T05:12:15;12.83;;;9.53;;
4182;SDS011;2105;52.300;9.182;2022-10-16T05:14:42;10.30;;;9.60;;
4182;SDS011;2105;52.300;9.182;2022-10-16T05:17:09;10.10;;;9.50;;
4182;SDS011;2105;52.300;9.182;2022-10-16T05:19:36;10.23;;;9.40;;
4182;SDS011;2105;52.300;9.182;2022-10-16T05:22:03;10.00;;;9.20;;
4182;SDS011;2105;52.300;9.182;2022-10-16T05:24:30;9.83;;;9.10;;
4182;SDS011;2105;52.300;9.182;2022-10-16T05:26:57;9.90;;;9.20;;
4182;SDS011;2105;52.300;9.182;2022-10-16T05:29:25;9.60;;;8.90;;
4182;SDS011;2105;52.300;9.182;2022-10-16T05:31:52;10.33;;;9.63;;
4182;SDS011;2105;52.300;9.182;2022-10-16T05:34:20;10.40;;;9.70;;
4182;SDS011;2105;52.300;9.182;2022-10-16T05:36:47;11.10;;;10.10;;
4182;SDS011;2105;52.300;9.182;2022-10-16T05:39:15;11.40;;;9.83;;
4182;SDS011;2105;52.300;9.182;2022-10-16T05:41:42;12.00;;;9.90;;
4182;SDS011;2105;52.300;9.182;2022-10-16T05:44:10;10.30;;;9.30;;
4182;SDS011;2105;52.300;9.182;2022-10-16T05:46:38;10.17;;;9.47;;
4182;SDS011;2105;52.300;9.182;2022-10-16T05:49:05;9.90;;;9.20;;
4182;SDS011;2105;52.300;9.182;2022-10-16T05:51:32;10.10;;;9.30;;
4182;SDS011;2105;52.300;9.182;2022-10-16T05:53:59;10.67;;;9.70;;
4182;SDS011;2105;52.300;9.182;2022-10-16T05:56:26;10.23;;;9.50;;
4182;SDS011;2105;52.300;9.182;2022-10-16T05:58:53;10.20;;;9.50;;
4182;SDS011;2105;52.300;9.182;2022-10-16T06:01:20;10.00;;;9.30;;
4182;SDS011;2105;52.300;9.182;2022-10-16T06:03:50;10.37;;;9.67;;
4182;SDS011;2105;52.300;9.182;2022-10-16T06:06:18;10.10;;;9.27;;
4182;SDS011;2105;52.300;9.182;2022-10-16T06:08:46;10.20;;;9.50;;
4182;SDS011;2105;52.300;9.182;2022-10-16T06:11:14;9.97;;;9.20;;
4182;SDS011;2105;52.300;9.182;2022-10-16T06:13:41;10.20;;;9.50;;
4182;SDS011;2105;52.300;9.182;2022-10-16T06:16:10;9.90;;;9.20;;
4182;SDS011;2105;52.300;9.182;2022-10-16T06:18:38;10.27;;;9.40;;
4182;SDS011;2105;52.300;9.182;2022-10-16T06:21:08;10.67;;;9.73;;
4182;SDS011;2105;52.300;9.182;2022-10-16T06:23:35;10.50;;;9.70;;
4182;SDS011;2105;52.300;9.182;2022-10-16T06:26:06;9.80;;;9.20;;
4182;SDS011;2105;52.300;9.182;2022-10-16T06:28:33;10.20;;;9.30;;
4182;SDS011;2105;52.300;9.182;2022-10-16T06:31:01;9.60;;;9.00;;
4182;SDS011;2105;52.300;9.182;2022-10-16T06:33:28;10.50;;;9.70;;
4182;SDS011;2105;52.300;9.182;2022-10-16T06:35:59;10.80;;;10.03;;
4182;SDS011;2105;52.300;9.182;2022-10-16T06:38:28;11.13;;;9.50;;
4182;SDS011;2105;52.300;9.182;2022-10-16T06:40:56;10.20;;;9.60;;
4182;SDS011;2105;52.300;9.182;2022-10-16T06:43:23;10.53;;;9.83;;
4182;SDS011;2105;52.300;9.182;2022-10-16T06:45:50;10.67;;;9.87;;
4182;SDS011;2105;52.300;9.182;2022-10-16T06:48:18;10.53;;;9.83;;
4182;SDS011;2105;52.300;9.182;2022-10-16T06:50:54;11.00;;;10.30;;
4182;SDS011;2105;52.300;9.182;2022-10-16T06:53:21;10.87;;;10.10;;
4182;SDS011;2105;52.300;9.182;2022-10-16T06:55:50;11.90;;;10.63;;
4182;SDS011;2105;52.300;9.182;2022-10-16T06:58:17;11.37;;;10.60;;
4182;SDS011;2105;52.300;9.182;2022-10-16T07:00:46;11.23;;;10.40;;
4182;SDS011;2105;52.300;9.182;2022-10-16T07:03:13;11.60;;;10.70;;
4182;SDS011;2105;52.300;9.182;2022-10-16T07:05:41;11.63;;;10.83;;
4182;SDS011;2105;52.300;9.182;2022-10-16T07:08:08;11.90;;;11.10;;
4182;SDS011;2105;52.300;9.182;2022-10-16T07:10:35;12.50;;;11.60;;
4182;SDS011;2105;52.300;9.182;2022-10-16T07:13:04;12.63;;;11.43;;
4182;SDS011;2105;52.300;9.182;2022-10-16T07:15:32;12.70;;;11.63;;
4182;SDS011;2105;52.300;9.182;2022-10-16T07:17:59;12.67;;;11.57;;
4182;SDS011;2105;52.300;9.182;2022-10-16T07:20:26;12.37;;;11.10;;
4182;SDS011;2105;52.300;9.182;2022-10-16T07:22:53;12.10;;;11.30;;
4182;SDS011;2105;52.300;9.182;2022-10-16T07:25:21;12.20;;;11.40;;
4182;SDS011;2105;52.300;9.182;2022-10-16T07:27:48;12.23;;;11.43;;
4182;SDS011;2105;52.300;9.182;2022-10-16T07:30:16;12.37;;;11.57;;
4182;SDS011;2105;52.300;9.182;2022-10-16T07:32:43;13.03;;;12.13;;
4182;SDS011;2105;52.300;9.182;2022-10-16T07:35:10;13.40;;;12.20;;
4182;SDS011;2105;52.300;9.182;2022-10-16T07:37:37;13.40;;;12.40;;
4182;SDS011;2105;52.300;9.182;2022-10-16T07:40:05;13.17;;;12.10;;
4182;SDS011;2105;52.300;9.182;2022-10-16T07:42:32;13.43;;;12.23;;
4182;SDS011;2105;52.300;9.182;2022-10-16T07:44:59;12.40;;;11.60;;
4182;SDS011;2105;52.300;9.182;2022-10-16T07:47:27;12.40;;;11.60;;
4182;SDS011;2105;52.300;9.182;2022-10-16T07:49:55;14.20;;;13.20;;
4182;SDS011;2105;52.300;9.182;2022-10-16T07:52:22;13.57;;;12.67;;
4182;SDS011;2105;52.300;9.182;2022-10-16T07:54:49;13.30;;;12.40;;
4182;SDS011;2105;52.300;9.182;2022-10-16T07:57:16;13.40;;;12.40;;
4182;SDS011;2105;52.300;9.182;2022-10-16T07:59:44;13.17;;;11.90;;
4182;SDS011;2105;52.300;9.182;2022-10-16T08:02:11;12.43;;;11.53;;
4182;SDS011;2105;52.300;9.182;2022-10-16T08:04:40;14.03;;;13.03;;
4182;SDS011;2105;52.300;9.182;2022-10-16T08:07:07;13.73;;;12.80;;
4182;SDS011;2105;52.300;9.182;2022-10-16T08:09:34;14.30;;;13.30;;
4182;SDS011;2105;52.300;9.182;2022-10-16T08:12:01;14.87;;;13.67;;
4182;SDS011;2105;52.300;9.182;2022-10-16T08:14:29;12.97;;;12.07;;
4182;SDS011;2105;52.300;9.182;2022-10-16T08:16:56;13.80;;;12.53;;
4182;SDS011;2105;52.300;9.182;2022-10-16T08:19:23;13.10;;;12.20;;
4182;SDS011;2105;52.300;9.182;2022-10-16T08:21:51;13.00;;;12.10;;
4182;SDS011;2105;52.300;9.182;2022-10-16T08:24:19;13.10;;;11.97;;
4182;SDS011;2105;52.300;9.182;2022-10-16T08:26:46;13.17;;;11.90;;
4182;SDS011;2105;52.300;9.182;2022-10-16T08:29:13;12.93;;;11.93;;
4182;SDS011;2105;52.300;9.182;2022-10-16T08:31:40;13.07;;;12.10;;
4182;SDS011;2105;52.300;9.182;2022-10-16T08:34:07;13.20;;;12.20;;
4182;SDS011;2105;52.300;9.182;2022-10-16T08:36:34;14.03;;;12.70;;
4182;SDS011;2105;52.300;9.182;2022-10-16T08:39:03;13.30;;;12.40;;
4182;SDS011;2105;52.300;9.182;2022-10-16T08:41:34;13.30;;;12.30;;
4182;SDS011;2105;52.300;9.182;2022-10-16T08:44:11;13.43;;;12.43;;
4182;SDS011;2105;52.300;9.182;2022-10-16T08:46:44;12.63;;;11.83;;
4182;SDS011;2105;52.300;9.182;2022-10-16T08:49:14;12.93;;;11.87;;
4182;SDS011;2105;52.300;9.182;2022-10-16T08:51:42;12.50;;;11.63;;
4182;SDS011;2105;52.300;9.182;2022-10-16T08:54:15;13.43;;;12.50;;
4182;SDS011;2105;52.300;9.182;2022-10-16T08:56:46;13.83;;;12.83;;
4182;SDS011;2105;52.300;9.182;2022-10-16T08:59:13;13.50;;;12.47;;
4182;SDS011;2105;52.300;9.182;2022-10-16T09:01:41;13.80;;;12.53;;
4182;SDS011;2105;52.300;9.182;2022-10-16T09:04:18;13.90;;;13.00;;
4182;SDS011;2105;52.300;9.182;2022-10-16T09:06:48;14.40;;;13.10;;
4182;SDS011;2105;52.300;9.182;2022-10-16T09:09:33;13.50;;;12.50;;
4182;SDS011;2105;52.300;9.182;2022-10-16T09:12:04;14.20;;;13.00;;
4182;SDS011;2105;52.300;9.182;2022-10-16T09:14:40;13.90;;;12.90;;
4182;SDS011;2105;52.300;9.182;2022-10-16T09:17:16;13.67;;;12.77;;
4182;SDS011;2105;52.300;9.182;2022-10-16T09:19:46;14.10;;;13.00;;
4182;SDS011;2105;52.300;9.182;2022-10-16T09:22:16;14.30;;;13.10;;
4182;SDS011;2105;52.300;9.182;2022-10-16T09:24:45;14.10;;;13.10;;
4182;SDS011;2105;52.300;9.182;2022-10-16T09:27:12;14.70;;;13.37;;
4182;SDS011;2105;52.300;9.182;2022-10-16T09:29:40;13.70;;;12.70;;
4182;SDS011;2105;52.300;9.182;2022-10-16T09:32:09;13.90;;;12.80;;
4182;SDS011;2105;52.300;9.182;2022-10-16T09:34:38;13.40;;;12.50;;
4182;SDS011;2105;52.300;9.182;2022-10-16T09:37:08;13.90;;;12.90;;
4182;SDS011;2105;52.300;9.182;2022-10-16T09:39:45;13.63;;;12.63;;
4182;SDS011;2105;52.300;9.182;2022-10-16T09:42:13;14.33;;;13.30;;
4182;SDS011;2105;52.300;9.182;2022-10-16T09:44:41;15.13;;;13.70;;
4182;SDS011;2105;52.300;9.182;2022-10-16T09:47:12;14.30;;;13.20;;
4182;SDS011;2105;52.300;9.182;2022-10-16T09:49:49;14.67;;;13.30;;
4182;SDS011;2105;52.300;9.182;2022-10-16T09:52:16;13.80;;;12.80;;
4182;SDS011;2105;52.300;9.182;2022-10-16T09:54:50;14.43;;;13.30;;
4182;SDS011;2105;52.300;9.182;2022-10-16T09:57:17;14.53;;;13.33;;
4182;SDS011;2105;52.300;9.182;2022-10-16T09:59:48;14.50;;;13.40;;
4182;SDS011;2105;52.300;9.182;2022-10-16T10:02:15;14.50;;;13.40;;
4182;SDS011;2105;52.300;9.182;2022-10-16T10:04:44;14.87;;;13.60;;
4182;SDS011;2105;52.300;9.182;2022-10-16T10:07:18;14.63;;;13.30;;
4182;SDS011;2105;52.300;9.182;2022-10-16T10:09:45;14.17;;;13.17;;
4182;SDS011;2105;52.300;9.182;2022-10-16T10:12:20;14.33;;;13.13;;
4182;SDS011;2105;52.300;9.182;2022-10-16T10:14:48;15.40;;;14.10;;
4182;SDS011;2105;52.300;9.182;2022-10-16T10:17:17;14.03;;;12.90;;
4182;SDS011;2105;52.300;9.182;2022-10-16T10:19:46;14.93;;;13.80;;
4182;SDS011;2105;52.300;9.182;2022-10-16T10:22:22;14.87;;;13.57;;
4182;SDS011;2105;52.300;9.182;2022-10-16T10:24:56;14.50;;;13.50;;
4182;SDS011;2105;52.300;9.182;2022-10-16T10:27:26;15.03;;;13.60;;
4182;SDS011;2105;52.300;9.182;2022-10-16T10:29:57;14.97;;;13.53;;
4182;SDS011;2105;52.300;9.182;2022-10-16T10:32:28;14.70;;;13.60;;
4182;SDS011;2105;52.300;9.182;2022-10-16T10:35:03;15.60;;;14.23;;
4182;SDS011;2105;52.300;9.182;2022-10-16T10:37:37;16.23;;;14.70;;
4182;SDS011;2105;52.300;9.182;2022-10-16T10:40:12;15.80;;;14.50;;
4182;SDS011;2105;52.300;9.182;2022-10-16T10:42:44;16.20;;;14.80;;
4182;SDS011;2105;52.300;9.182;2022-10-16T10:45:16;15.07;;;14.00;;
4182;SDS011;2105;52.300;9.182;2022-10-16T10:47:48;15.27;;;13.97;;
4182;SDS011;2105;52.300;9.182;2022-10-16T10:50:21;16.03;;;14.60;;
4182;SDS011;2105;52.300;9.182;2022-10-16T10:52:54;15.47;;;14.37;;
4182;SDS011;2105;52.300;9.182;2022-10-16T10:55:23;15.67;;;14.23;;
4182;SDS011;2105;52.300;9.182;2022-10-16T10:57:59;14.40;;;13.30;;
4182;SDS011;2105;52.300;9.182;2022-10-16T11:00:31;17.90;;;14.03;;
4182;SDS011;2105;52.300;9.182;2022-10-16T11:03:03;15.77;;;14.27;;
4182;SDS011;2105;52.300;9.182;2022-10-16T11:05:36;15.40;;;14.10;;
4182;SDS011;2105;52.300;9.182;2022-10-16T11:08:08;14.40;;;13.40;;
4182;SDS011;2105;52.300;9.182;2022-10-16T11:10:39;14.67;;;13.67;;
4182;SDS011;2105;52.300;9.182;2022-10-16T11:13:10;14.60;;;13.50;;
4182;SDS011;2105;52.300;9.182;2022-10-16T11:15:41;14.50;;;13.40;;
4182;SDS011;2105;52.300;9.182;2022-10-16T11:18:11;13.83;;;12.93;;
4182;SDS011;2105;52.300;9.182;2022-10-16T11:20:42;14.83;;;13.63;;
4182;SDS011;2105;52.300;9.182;2022-10-16T11:23:12;14.90;;;13.80;;
4182;SDS011;2105;52.300;9.182;2022-10-16T11:25:40;15.57;;;14.13;;
4182;SDS011;2105;52.300;9.182;2022-10-16T11:28:08;15.00;;;13.77;;
4182;SDS011;2105;52.300;9.182;2022-10-16T11:30:40;14.47;;;13.37;;
4182;SDS011;2105;52.300;9.182;2022-10-16T11:33:18;14.87;;;13.63;;
4182;SDS011;2105;52.300;9.182;2022-10-16T11:35:47;14.30;;;13.30;;
4182;SDS011;2105;52.300;9.182;2022-10-16T11:38:16;15.63;;;14.43;;
4182;SDS011;2105;52.300;9.182;2022-10-16T11:40:47;15.97;;;14.23;;
4182;SDS011;2105;52.300;9.182;2022-10-16T11:43:17;16.03;;;14.83;;
4182;SDS011;2105;52.300;9.182;2022-10-16T11:45:48;15.83;;;14.40;;
4182;SDS011;2105;52.300;9.182;2022-10-16T11:48:18;15.00;;;13.90;;
4182;SDS011;2105;52.300;9.182;2022-10-16T11:50:48;15.20;;;14.10;;
4182;SDS011;2105;52.300;9.182;2022-10-16T11:53:19;14.37;;;13.37;;
4182;SDS011;2105;52.300;9.182;2022-10-16T11:55:50;14.73;;;13.63;;
4182;SDS011;2105;52.300;9.182;2022-10-16T11:58:20;14.87;;;13.53;;
4182;SDS011;2105;52.300;9.182;2022-10-16T12:00:54;14.37;;;13.27;;
4182;SDS011;2105;52.300;9.182;2022-10-16T12:03:22;14.27;;;13.17;;
4182;SDS011;2105;52.300;9.182;2022-10-16T12:05:54;14.20;;;13.30;;
4182;SDS011;2105;52.300;9.182;2022-10-16T12:08:22;14.27;;;13.13;;
4182;SDS011;2105;52.300;9.182;2022-10-16T12:10:49;15.27;;;13.70;;
4182;SDS011;2105;52.300;9.182;2022-10-16T12:13:28;15.30;;;14.20;;
4182;SDS011;2105;52.300;9.182;2022-10-16T12:16:04;14.50;;;13.40;;
4182;SDS011;2105;52.300;9.182;2022-10-16T12:18:32;14.40;;;13.27;;
4182;SDS011;2105;52.300;9.182;2022-10-16T12:20:59;14.50;;;13.30;;
4182;SDS011;2105;52.300;9.182;2022-10-16T12:23:30;14.60;;;13.10;;
4182;SDS011;2105;52.300;9.182;2022-10-16T12:25:58;14.50;;;13.03;;
4182;SDS011;2105;52.300;9.182;2022-10-16T12:28:27;14.00;;;13.10;;
4182;SDS011;2105;52.300;9.182;2022-10-16T12:30:56;13.90;;;12.90;;
4182;SDS011;2105;52.300;9.182;2022-10-16T12:33:25;13.80;;;12.70;;
4182;SDS011;2105;52.300;9.182;2022-10-16T12:35:53;14.17;;;13.00;;
4182;SDS011;2105;52.300;9.182;2022-10-16T12:38:20;13.93;;;12.83;;
4182;SDS011;2105;52.300;9.182;2022-10-16T12:40:54;14.20;;;13.00;;
4182;SDS011;2105;52.300;9.182;2022-10-16T12:43:27;13.60;;;12.73;;
4182;SDS011;2105;52.300;9.182;2022-10-16T12:46:02;13.60;;;12.40;;
4182;SDS011;2105;52.300;9.182;2022-10-16T12:48:31;13.70;;;12.30;;
4182;SDS011;2105;52.300;9.182;2022-10-16T12:51:09;18.33;;;12.60;;
4182;SDS011;2105;52.300;9.182;2022-10-16T12:53:36;13.90;;;12.70;;
4182;SDS011;2105;52.300;9.182;2022-10-16T12:56:04;13.37;;;12.27;;
4182;SDS011;2105;52.300;9.182;2022-10-16T12:58:42;15.60;;;13.30;;
4182;SDS011;2105;52.300;9.182;2022-10-16T13:01:17;14.20;;;13.20;;
4182;SDS011;2105;52.300;9.182;2022-10-16T13:03:51;14.00;;;12.90;;
4182;SDS011;2105;52.300;9.182;2022-10-16T13:06:26;16.13;;;13.00;;
4182;SDS011;2105;52.300;9.182;2022-10-16T13:09:02;14.80;;;13.30;;
4182;SDS011;2105;52.300;9.182;2022-10-16T13:11:38;14.30;;;13.10;;
4182;SDS011;2105;52.300;9.182;2022-10-16T13:14:19;13.97;;;12.87;;
4182;SDS011;2105;52.300;9.182;2022-10-16T13:16:49;13.90;;;12.90;;
4182;SDS011;2105;52.300;9.182;2022-10-16T13:19:24;14.70;;;13.50;;
4182;SDS011;2105;52.300;9.182;2022-10-16T13:21:55;14.17;;;13.00;;
4182;SDS011;2105;52.300;9.182;2022-10-16T13:24:27;14.97;;;13.67;;
4182;SDS011;2105;52.300;9.182;2022-10-16T13:27:00;14.50;;;13.30;;
4182;SDS011;2105;52.300;9.182;2022-10-16T13:29:30;14.47;;;13.30;;
4182;SDS011;2105;52.300;9.182;2022-10-16T13:31:58;14.37;;;13.33;;
4182;SDS011;2105;52.300;9.182;2022-10-16T13:34:28;14.87;;;13.80;;
4182;SDS011;2105;52.300;9.182;2022-10-16T13:36:55;14.30;;;13.20;;
4182;SDS011;2105;52.300;9.182;2022-10-16T13:39:23;14.07;;;13.07;;
4182;SDS011;2105;52.300;9.182;2022-10-16T13:42:03;13.80;;;12.80;;
4182;SDS011;2105;52.300;9.182;2022-10-16T13:44:33;15.47;;;14.07;;
4182;SDS011;2105;52.300;9.182;2022-10-16T13:47:02;14.50;;;13.30;;
4182;SDS011;2105;52.300;9.182;2022-10-16T13:49:31;14.90;;;13.60;;
4182;SDS011;2105;52.300;9.182;2022-10-16T13:51:58;14.73;;;13.33;;
4182;SDS011;2105;52.300;9.182;2022-10-16T13:54:26;14.20;;;13.10;;
4182;SDS011;2105;52.300;9.182;2022-10-16T13:56:54;14.83;;;13.83;;
4182;SDS011;2105;52.300;9.182;2022-10-16T13:59:22;14.20;;;13.07;;
4182;SDS011;2105;52.300;9.182;2022-10-16T14:01:50;14.60;;;13.60;;
4182;SDS011;2105;52.300;9.182;2022-10-16T14:04:17;14.80;;;13.80;;
4182;SDS011;2105;52.300;9.182;2022-10-16T14:06:46;15.40;;;14.00;;
4182;SDS011;2105;52.300;9.182;2022-10-16T14:09:18;15.00;;;13.83;;
4182;SDS011;2105;52.300;9.182;2022-10-16T14:11:48;14.60;;;13.33;;
4182;SDS011;2105;52.300;9.182;2022-10-16T14:14:16;14.60;;;13.40;;
4182;SDS011;2105;52.300;9.182;2022-10-16T14:16:44;14.97;;;13.80;;
4182;SDS011;2105;52.300;9.182;2022-10-16T14:19:13;14.97;;;13.87;;
4182;SDS011;2105;52.300;9.182;2022-10-16T14:21:41;14.57;;;13.37;;
4182;SDS011;2105;52.300;9.182;2022-10-16T14:24:12;14.20;;;13.20;;
4182;SDS011;2105;52.300;9.182;2022-10-16T14:26:41;14.43;;;13.30;;
4182;SDS011;2105;52.300;9.182;2022-10-16T14:29:10;14.10;;;13.10;;
4182;SDS011;2105;52.300;9.182;2022-10-16T14:31:38;14.53;;;13.53;;
4182;SDS011;2105;52.300;9.182;2022-10-16T14:36:47;15.33;;;13.70;;
4182;SDS011;2105;52.300;9.182;2022-10-16T14:39:17;15.40;;;13.80;;
4182;SDS011;2105;52.300;9.182;2022-10-16T14:41:47;14.60;;;13.40;;
4182;SDS011;2105;52.300;9.182;2022-10-16T14:44:14;14.00;;;12.93;;
4182;SDS011;2105;52.300;9.182;2022-10-16T14:46:43;14.00;;;13.00;;
4182;SDS011;2105;52.300;9.182;2022-10-16T14:49:14;14.83;;;13.70;;
4182;SDS011;2105;52.300;9.182;2022-10-16T14:51:42;14.77;;;13.43;;
4182;SDS011;2105;52.300;9.182;2022-10-16T14:54:11;14.70;;;13.50;;
4182;SDS011;2105;52.300;9.182;2022-10-16T14:56:43;14.60;;;13.50;;
4182;SDS011;2105;52.300;9.182;2022-10-16T14:59:13;17.67;;;14.00;;
4182;SDS011;2105;52.300;9.182;2022-10-16T15:01:42;14.33;;;13.33;;
4182;SDS011;2105;52.300;9.182;2022-10-16T15:04:09;14.57;;;13.43;;
4182;SDS011;2105;52.300;9.182;2022-10-16T15:06:38;14.60;;;13.60;;